ADDS METAR Data INFO
IDs: Format: Raw Decoded Include TAF

Data at: 0008 UTC 24 Feb 2018

KISN 232352Z AUTO 19009KT 10SM CLR M11/M17 A3007 RMK AO2 SLP233 T11111167 11106 21167 56018
KISN 232252Z AUTO 19010KT 10SM CLR M11/M17 A3008 RMK AO2 SLP237 T11111167
KISN 232152Z AUTO 20010KT 10SM CLR M11/M17 A3010 RMK AO2 SLP248 T11111167
KISN 232052Z AUTO 21008KT 10SM CLR M11/M16 A3013 RMK AO2 SLP255 T11111156 58028
KISN 231952Z AUTO 25007KT 10SM CLR M13/M17 A3016 RMK AO2 SLP271 T11331167
KISN 231852Z AUTO 23010KT 6SM BR SCT004 M16/M17 A3019 RMK AO2 SLP282 T11561172
KISN 231822Z AUTO 23009KT 10SM FEW008 M16/M20 A3020 RMK AO2 T11561200
KISN 231752Z AUTO 23009KT 10SM CLR M17/M21 A3021 RMK AO2 SLP290 60000 T11671206 11167 21206 58007
KISN 231652Z AUTO 22007KT 10SM SCT020 M18/M22 A3023 RMK AO2 SLP297 T11831222
KISN 231552Z AUTO 21010KT 7SM OVC021 M19/M23 A3023 RMK AO2 SNE1455B03E08 SLP298 P0000 T11941228
KISN 231501Z AUTO 21007KT 6SM HZ SCT007 OVC021 M21/M23 A3024 RMK AO2 SNE1455 P0000 T12061233
KISN 231452Z AUTO 21007KT 6SM -SN BKN007 OVC021 M21/M24 A3024 RMK AO2 SNB1356 SLP301 P0000 60000 T12061239 53002
KISN 231415Z AUTO 20006KT 5SM -SN OVC005 M21/M23 A3024 RMK AO2 SNB1356 P0000 T12061233
KISN 231352Z AUTO 22006KT 9SM OVC004 M21/M24 A3024 RMK AO2 SLP298 T12061239
KISN 231252Z AUTO 20005KT 10SM OVC004 M20/M23 A3023 RMK AO2 SLP297 T12001228
KISN 231152Z AUTO 20005KT 10SM OVC004 M21/M23 A3024 RMK AO2 SLP295 I6000 T12061233 11206 21239 57001
KISN 231052Z AUTO 20005KT 10SM OVC005 M21/M24 A3024 RMK AO2 SLP294 T12111239
KISN 230959Z AUTO 22005KT 10SM BKN007 OVC016 M22/M25 A3024 RMK AO2 T12221250
KISN 230952Z AUTO 22005KT 10SM SCT009 OVC016 M22/M26 A3024 RMK AO2 SLP296 T12221256
KISN 230910Z AUTO 20005KT 10SM FEW012 BKN017 M23/M26 A3025 RMK AO2 T12331261
KISN 230852Z AUTO 24006KT 10SM FEW012 M23/M26 A3025 RMK AO2 SLP302 I3000 T12281256 51004
KISN 230752Z AUTO 21004KT 10SM CLR M22/M25 A3025 RMK AO2 SLP301 T12221250
KISN 230652Z AUTO 21003KT 10SM CLR M22/M25 A3025 RMK AO2 SLP302 T12221250
KISN 230552Z AUTO 22004KT 10SM CLR M22/M24 A3024 RMK AO2 SLP300 T12221244 11139 21239 411171261 58000
KISN 230452Z AUTO 24004KT 10SM CLR M21/M24 A3024 RMK AO2 SLP302 T12111239
KISN 230352Z AUTO 23003KT 10SM CLR M19/M22 A3026 RMK AO2 SLP307 T11941222
KISN 230252Z AUTO 00000KT 10SM CLR M18/M21 A3024 RMK AO2 SLP304 T11831211 51010
KISN 230152Z AUTO 00000KT 10SM CLR M18/M21 A3024 RMK AO2 SLP303 T11781211
KISN 230052Z AUTO 23005KT 10SM CLR M17/M21 A3022 RMK AO2 SLP298 T11721211
KISN 222352Z AUTO 32003KT 10SM CLR M14/M19 A3021 RMK AO2 SLP288 T11391194 11117 21161 55004
KISN 222252Z AUTO 26006KT 10SM CLR M13/M18 A3021 RMK AO2 SLP287 T11281183
KISN 222152Z AUTO 26005KT 10SM CLR M12/M18 A3022 RMK AO2 SLP287 T11171178
KISN 222052Z AUTO VRB03KT 10SM CLR M12/M18 A3022 RMK AO2 SLP288 T11221183 58014
KISN 221952Z AUTO 26005KT 10SM CLR M13/M19 A3025 RMK AO2 SLP295 T11331189
KISN 221852Z AUTO 24005KT 10SM CLR M14/M20 A3026 RMK AO2 SLP300 T11441200
KISN 221752Z AUTO 21005KT 10SM CLR M16/M22 A3027 RMK AO2 SLP303 I6000 T11611217 11161 21261 51005
KISN 221652Z AUTO 19004KT 10SM CLR M18/M23 A3026 RMK AO2 SLP304 T11781228
KISN 221552Z AUTO 21003KT 10SM CLR M21/M24 A3026 RMK AO2 SLP304 T12111244
KISN 221452Z AUTO 20003KT 10SM CLR M23/M26 A3025 RMK AO2 SLP302 I3000 T12331261 53010
KISN 221352Z AUTO 21003KT 10SM CLR M26/M28 A3023 RMK AO2 SLP295 I1000 T12561278
KISN 221252Z AUTO 00000KT 10SM CLR M26/M28 A3021 RMK AO2 SLP290 T12561278